createdAt,value
2023-08-12T00:01:22.747Z,4.30
2023-08-12T00:04:28.105Z,6.53
2023-08-12T00:07:38.973Z,5.40
2023-08-12T00:10:46.349Z,4.57
2023-08-12T00:13:52.032Z,5.70
2023-08-12T00:16:57.673Z,4.15
2023-08-12T00:20:06.974Z,6.97
2023-08-12T00:23:15.061Z,5.88
2023-08-12T00:26:20.608Z,5.75
2023-08-12T00:29:25.953Z,5.00
2023-08-12T00:32:32.678Z,7.03
2023-08-12T00:35:37.935Z,6.03
2023-08-12T00:38:46.224Z,4.20
2023-08-12T00:41:51.642Z,5.40
2023-08-12T00:44:57.527Z,5.53
2023-08-12T00:48:03.015Z,6.15
2023-08-12T00:51:08.667Z,4.70
2023-08-12T00:54:20.703Z,3.75
2023-08-12T00:57:26.368Z,4.47
2023-08-12T01:00:31.697Z,4.85
2023-08-12T01:03:37.772Z,5.65
2023-08-12T01:06:43.604Z,7.28
2023-08-12T01:09:52.449Z,4.60
2023-08-12T01:13:00.973Z,5.00
2023-08-12T01:16:09.666Z,4.47
2023-08-12T01:19:20.067Z,5.57
2023-08-12T01:22:26.989Z,4.53
2023-08-12T01:25:34.884Z,4.03
2023-08-12T01:28:40.618Z,6.43
2023-08-12T01:31:49.536Z,5.95
2023-08-12T01:35:00.021Z,4.75
2023-08-12T01:38:07.456Z,7.00
2023-08-12T01:41:16.625Z,4.38
2023-08-12T01:44:22.582Z,6.10
2023-08-12T01:47:28.521Z,5.75
2023-08-12T01:50:35.848Z,4.20
2023-08-12T01:53:41.590Z,6.40
2023-08-12T01:56:49.409Z,4.75
2023-08-12T01:59:55.688Z,6.57
2023-08-12T02:03:00.970Z,6.00
2023-08-12T02:06:06.624Z,5.78
2023-08-12T02:09:11.827Z,7.40
2023-08-12T02:12:21.348Z,5.35
2023-08-12T02:15:26.590Z,6.78
2023-08-12T02:18:32.365Z,7.38
2023-08-12T02:21:39.315Z,10.75
2023-08-12T02:24:48.634Z,6.55
2023-08-12T02:27:56.619Z,6.45
2023-08-12T02:31:02.226Z,4.78
2023-08-12T02:34:09.637Z,4.82
2023-08-12T02:37:16.030Z,4.88
2023-08-12T02:40:21.622Z,6.15
2023-08-12T02:43:30.059Z,4.03
2023-08-12T02:46:35.576Z,6.13
2023-08-12T02:49:42.564Z,6.53
2023-08-12T02:52:50.522Z,3.85
2023-08-12T02:55:56.558Z,4.80
2023-08-12T02:59:04.927Z,4.35
2023-08-12T03:02:10.713Z,6.15
2023-08-12T03:05:16.323Z,5.78
2023-08-12T03:08:26.710Z,5.15
2023-08-12T03:11:34.859Z,5.97
2023-08-12T03:14:44.115Z,4.82
2023-08-12T03:17:51.474Z,5.57
2023-08-12T03:20:57.146Z,4.80
2023-08-12T03:24:07.053Z,6.35
2023-08-12T03:27:13.054Z,4.93
2023-08-12T03:30:21.202Z,7.03
2023-08-12T03:33:26.926Z,11.57
2023-08-12T03:36:32.240Z,5.82
2023-08-12T03:39:38.298Z,6.68
2023-08-12T03:42:44.609Z,4.70
2023-08-12T03:45:53.212Z,6.32
2023-08-12T03:49:01.417Z,6.82
2023-08-12T03:52:08.669Z,5.55
2023-08-12T03:55:14.372Z,7.80
2023-08-12T03:58:20.080Z,6.35
2023-08-12T04:01:28.404Z,4.85
2023-08-12T04:04:34.221Z,6.53
2023-08-12T04:07:40.355Z,13.13
2023-08-12T04:10:49.062Z,7.15
2023-08-12T04:13:58.785Z,4.95
2023-08-12T04:17:07.427Z,10.20
2023-08-12T04:20:17.459Z,4.80
2023-08-12T04:23:23.550Z,5.90
2023-08-12T04:26:28.973Z,5.95
2023-08-12T04:29:34.599Z,5.53
2023-08-12T04:32:42.858Z,7.63
2023-08-12T04:35:48.424Z,7.25
2023-08-12T04:38:55.665Z,4.63
2023-08-12T04:42:02.546Z,8.40
2023-08-12T04:45:08.502Z,6.28
2023-08-12T04:48:17.189Z,5.35
2023-08-12T04:51:25.108Z,6.13
2023-08-12T04:54:31.129Z,6.22
2023-08-12T04:57:36.295Z,5.18
2023-08-12T05:00:42.115Z,7.40
2023-08-12T05:03:50.015Z,4.88
2023-08-12T05:06:55.576Z,6.60
2023-08-12T05:10:00.815Z,6.07
2023-08-12T05:13:07.227Z,5.57
2023-08-12T05:16:12.598Z,5.88
2023-08-12T05:19:21.364Z,6.93
2023-08-12T05:22:26.912Z,7.22
2023-08-12T05:25:33.197Z,4.28
2023-08-12T05:28:38.896Z,9.25
2023-08-12T05:31:47.176Z,6.38
2023-08-12T05:34:57.079Z,4.40
2023-08-12T05:38:02.861Z,7.10
2023-08-12T05:41:15.614Z,4.68
2023-08-12T05:44:21.660Z,4.75
2023-08-12T05:47:31.315Z,6.30
2023-08-12T05:50:39.721Z,5.60
2023-08-12T05:53:46.795Z,5.15
2023-08-12T05:56:53.959Z,4.50
2023-08-12T06:00:00.620Z,8.80
2023-08-12T06:03:06.506Z,5.47
2023-08-12T06:06:14.819Z,7.53
2023-08-12T06:09:23.203Z,6.20
2023-08-12T06:12:28.375Z,5.85
2023-08-12T06:15:35.323Z,5.38
2023-08-12T06:18:40.572Z,5.85
2023-08-12T06:21:50.347Z,6.47
2023-08-12T06:24:55.745Z,5.35
2023-08-12T06:28:05.488Z,6.53
2023-08-12T06:31:10.811Z,6.63
2023-08-12T06:34:19.834Z,4.95
2023-08-12T06:37:30.553Z,5.57
2023-08-12T06:40:42.357Z,5.22
2023-08-12T06:43:53.392Z,5.00
2023-08-12T06:46:59.180Z,6.43
2023-08-12T06:50:04.770Z,5.65
2023-08-12T06:53:14.676Z,5.70
2023-08-12T06:56:19.907Z,6.30
2023-08-12T06:59:27.484Z,8.95
2023-08-12T07:02:35.179Z,9.35
2023-08-12T07:05:43.324Z,5.97
2023-08-12T07:08:51.696Z,5.75
2023-08-12T07:12:00.328Z,6.72
2023-08-12T07:15:05.910Z,6.10
2023-08-12T07:18:19.779Z,5.38
2023-08-12T07:21:38.912Z,5.68
2023-08-12T07:24:47.247Z,4.80
2023-08-12T07:27:55.767Z,6.43
2023-08-12T07:31:01.500Z,6.90
2023-08-12T07:34:14.703Z,5.60
2023-08-12T07:37:20.446Z,6.50
2023-08-12T07:40:29.479Z,6.95
2023-08-12T07:43:35.340Z,7.38
2023-08-12T07:46:41.172Z,6.88
2023-08-12T07:49:49.253Z,5.40
2023-08-12T07:52:56.202Z,7.45
2023-08-12T07:56:09.160Z,6.18
2023-08-12T07:59:19.751Z,6.28
2023-08-12T08:02:25.832Z,5.13
2023-08-12T08:05:31.363Z,6.60
2023-08-12T08:08:37.982Z,7.85
2023-08-12T08:11:46.321Z,4.75
2023-08-12T08:14:52.444Z,4.28
2023-08-12T08:18:04.644Z,4.70
2023-08-12T08:21:11.363Z,5.40
2023-08-12T08:24:19.394Z,10.18
2023-08-12T08:27:27.904Z,4.03
2023-08-12T08:30:35.669Z,7.22
2023-08-12T08:33:44.043Z,3.95
2023-08-12T08:36:50.600Z,4.03
2023-08-12T08:39:58.135Z,4.65
2023-08-12T08:43:07.943Z,5.30
2023-08-12T08:46:18.044Z,6.32
2023-08-12T08:49:24.077Z,5.68
2023-08-12T08:52:30.232Z,3.47
2023-08-12T08:55:37.105Z,6.35
2023-08-12T08:58:45.678Z,6.43
2023-08-12T09:01:56.355Z,4.97
2023-08-12T09:05:03.959Z,5.20
2023-08-12T09:08:14.998Z,5.18
2023-08-12T09:11:22.405Z,5.47
2023-08-12T09:14:32.077Z,5.70
2023-08-12T09:17:39.754Z,6.18
2023-08-12T09:20:45.576Z,3.80
2023-08-12T09:23:52.952Z,4.70
2023-08-12T09:26:58.631Z,7.93
2023-08-12T09:30:07.564Z,5.10
2023-08-12T09:33:15.007Z,4.15
2023-08-12T09:36:21.195Z,5.35
2023-08-12T09:39:28.146Z,4.43
2023-08-12T09:42:36.845Z,6.38
2023-08-12T09:45:46.056Z,5.65
2023-08-12T09:48:53.761Z,4.28
2023-08-12T09:52:01.744Z,4.75
2023-08-12T09:55:08.166Z,4.38
2023-08-12T09:58:14.449Z,3.72
2023-08-12T10:01:25.073Z,4.70
2023-08-12T10:04:34.346Z,4.88
2023-08-12T10:07:40.742Z,5.82
2023-08-12T10:10:53.089Z,4.97
2023-08-12T10:14:06.311Z,4.47
2023-08-12T10:17:26.655Z,4.40
2023-08-12T10:20:44.719Z,4.45
2023-08-12T10:23:50.449Z,3.83
2023-08-12T10:26:57.450Z,4.05
2023-08-12T10:30:06.821Z,6.43
2023-08-12T10:33:18.476Z,5.93
2023-08-12T10:36:26.361Z,4.53
2023-08-12T10:39:36.287Z,4.60
2023-08-12T10:42:45.527Z,5.82
2023-08-12T10:45:56.742Z,5.23
2023-08-12T10:49:11.809Z,5.18
2023-08-12T10:52:30.450Z,4.20
2023-08-12T10:55:37.249Z,5.13
2023-08-12T10:58:53.711Z,4.53
2023-08-12T11:02:10.234Z,4.40
2023-08-12T11:05:20.952Z,3.40
2023-08-12T11:08:30.682Z,5.82
2023-08-12T11:11:38.150Z,3.65
2023-08-12T11:14:52.714Z,5.65
2023-08-12T11:17:59.034Z,4.97
2023-08-12T11:21:08.780Z,4.68
2023-08-12T11:24:18.288Z,4.25
2023-08-12T11:27:25.764Z,4.22
2023-08-12T11:30:33.143Z,5.93
2023-08-12T11:33:42.260Z,4.25
2023-08-12T11:36:51.352Z,4.72
2023-08-12T11:40:01.550Z,4.13
2023-08-12T11:43:08.074Z,4.07
2023-08-12T11:46:15.744Z,4.25
2023-08-12T11:49:22.785Z,5.45
2023-08-12T11:52:32.250Z,3.85
2023-08-12T11:55:39.157Z,4.88
2023-08-12T11:58:53.108Z,3.95
2023-08-12T12:02:04.622Z,3.88
2023-08-12T12:05:13.328Z,3.90
2023-08-12T12:08:23.585Z,4.22
2023-08-12T12:11:32.317Z,3.33
2023-08-12T12:14:42.396Z,4.28
2023-08-12T12:17:50.727Z,6.05
2023-08-12T12:21:00.772Z,5.60
2023-08-12T12:24:08.832Z,3.00
2023-08-12T12:27:20.726Z,5.22
2023-08-12T12:30:28.459Z,6.10
2023-08-12T12:33:35.339Z,4.63
2023-08-12T12:36:47.425Z,3.63
2023-08-12T12:39:56.596Z,3.72
2023-08-12T12:43:04.588Z,5.75
2023-08-12T12:46:12.431Z,5.53
2023-08-12T12:49:18.720Z,5.75
2023-08-12T12:52:26.743Z,4.68
2023-08-12T12:55:42.040Z,5.65
2023-08-12T12:58:50.262Z,5.35
2023-08-12T13:01:57.732Z,6.10
2023-08-12T13:05:06.093Z,5.63
2023-08-12T13:08:13.989Z,4.68
2023-08-12T13:11:24.085Z,5.80
2023-08-12T13:14:31.854Z,5.05
2023-08-12T13:17:38.284Z,3.60
2023-08-12T13:20:43.874Z,5.32
2023-08-12T13:23:52.313Z,4.35
2023-08-12T13:27:05.219Z,5.88
2023-08-12T13:30:12.659Z,4.10
2023-08-12T13:33:18.877Z,3.63
2023-08-12T13:36:26.837Z,5.05
2023-08-12T13:39:32.638Z,4.15
2023-08-12T13:42:41.539Z,6.22
2023-08-12T13:45:47.401Z,6.68
2023-08-12T13:48:53.195Z,5.10
2023-08-12T13:51:58.696Z,4.85
2023-08-12T13:55:04.961Z,5.90
2023-08-12T13:58:15.873Z,4.55
2023-08-12T14:04:29.912Z,3.92
2023-08-12T14:07:36.618Z,4.68
2023-08-12T14:10:45.285Z,4.88
2023-08-12T14:13:53.566Z,4.40
2023-08-12T14:16:59.042Z,4.55
2023-08-12T14:20:10.073Z,4.68
2023-08-12T14:23:17.141Z,4.22
2023-08-12T14:26:25.368Z,6.07
2023-08-12T14:29:34.198Z,4.68
2023-08-12T14:32:41.581Z,3.38
2023-08-12T14:35:50.113Z,5.68
2023-08-12T14:38:56.129Z,4.40
2023-08-12T14:42:02.427Z,6.55
2023-08-12T14:45:12.615Z,5.35
2023-08-12T14:48:19.596Z,4.80
2023-08-12T14:51:29.221Z,4.43
2023-08-12T14:54:35.650Z,6.82
2023-08-12T14:57:42.819Z,4.70
2023-08-12T15:00:51.221Z,5.70
2023-08-12T15:03:57.222Z,5.97
2023-08-12T15:07:03.595Z,6.15
2023-08-12T15:10:10.315Z,4.97
2023-08-12T15:13:16.187Z,6.70
2023-08-12T15:16:27.020Z,4.82
2023-08-12T15:19:32.714Z,5.45
2023-08-12T15:22:45.756Z,5.38
2023-08-12T15:25:58.142Z,4.70
2023-08-12T15:29:04.816Z,6.20
2023-08-12T15:32:15.907Z,4.03
2023-08-12T15:35:27.167Z,5.45
2023-08-12T15:38:34.988Z,5.97
2023-08-12T15:41:45.002Z,6.35
2023-08-12T15:44:52.017Z,7.60
2023-08-12T15:48:00.994Z,6.50
2023-08-12T15:51:07.050Z,6.18
2023-08-12T15:54:14.876Z,4.78
2023-08-12T15:57:20.812Z,8.98
2023-08-12T16:00:28.131Z,5.43
2023-08-12T16:03:36.930Z,7.28
2023-08-12T16:06:43.128Z,6.93
2023-08-12T16:09:48.359Z,6.80
2023-08-12T16:12:57.336Z,6.40
2023-08-12T16:16:02.827Z,5.75
2023-08-12T16:19:14.066Z,5.10
2023-08-12T16:22:19.471Z,10.37
2023-08-12T16:25:25.924Z,5.50
2023-08-12T16:28:32.140Z,5.22
2023-08-12T16:31:40.501Z,7.88
2023-08-12T16:34:52.374Z,5.63
2023-08-12T16:38:00.608Z,7.78
2023-08-12T16:41:06.125Z,5.60
2023-08-12T16:44:13.152Z,10.75
2023-08-12T16:47:20.473Z,7.50
2023-08-12T16:50:28.719Z,9.02
2023-08-12T16:53:34.136Z,9.07
2023-08-12T16:56:39.700Z,7.32
2023-08-12T16:59:44.930Z,11.63
2023-08-12T17:02:54.032Z,10.02
2023-08-12T17:06:02.125Z,9.02
2023-08-12T17:09:16.883Z,7.43
2023-08-12T17:12:28.821Z,8.48
2023-08-12T17:15:37.180Z,8.20
2023-08-12T17:18:42.318Z,9.48
2023-08-12T17:21:50.559Z,7.55
2023-08-12T17:25:00.506Z,8.10
2023-08-12T17:28:06.112Z,8.68
2023-08-12T17:31:13.312Z,9.68
2023-08-12T17:34:21.625Z,9.20
2023-08-12T17:37:31.126Z,7.72
2023-08-12T17:40:37.508Z,8.07
2023-08-12T17:43:45.044Z,9.80
2023-08-12T17:46:51.450Z,7.68
2023-08-12T17:49:57.272Z,8.13
2023-08-12T17:53:05.711Z,9.30
2023-08-12T17:56:11.173Z,6.78
2023-08-12T17:59:16.677Z,7.53
2023-08-12T18:02:23.875Z,8.82
2023-08-12T18:05:30.300Z,8.00
2023-08-12T18:08:41.548Z,10.43
2023-08-12T18:11:47.107Z,8.73
2023-08-12T18:14:52.410Z,6.65
2023-08-12T18:17:58.141Z,9.50
2023-08-12T18:21:03.927Z,5.97
2023-08-12T18:24:14.784Z,6.25
2023-08-12T18:27:20.940Z,8.90
2023-08-12T18:30:28.945Z,9.25
2023-08-12T18:33:34.177Z,6.75
2023-08-12T18:36:42.094Z,6.97
2023-08-12T18:39:52.026Z,9.07
2023-08-12T18:42:58.930Z,11.05
2023-08-12T18:46:07.809Z,7.40
2023-08-12T18:49:15.675Z,7.30
2023-08-12T18:52:21.647Z,8.60
2023-08-12T18:55:31.990Z,8.15
2023-08-12T18:58:38.325Z,7.93
2023-08-12T19:01:51.302Z,11.20
2023-08-12T19:04:56.548Z,9.90
2023-08-12T19:08:05.761Z,10.40
2023-08-12T19:11:13.926Z,10.98
2023-08-12T19:14:19.534Z,10.20
2023-08-12T19:17:24.674Z,11.10
2023-08-12T19:20:30.596Z,10.38
2023-08-12T19:23:35.714Z,9.82
2023-08-12T19:26:44.115Z,10.05
2023-08-12T19:29:49.193Z,10.07
2023-08-12T19:33:00.130Z,10.13
2023-08-12T19:36:05.625Z,11.68
2023-08-12T19:39:12.426Z,8.50
2023-08-12T19:42:20.048Z,9.52
2023-08-12T19:45:28.349Z,10.00
2023-08-12T19:48:34.666Z,8.95
2023-08-12T19:51:40.378Z,10.48
2023-08-12T19:54:45.525Z,9.13
2023-08-12T19:57:54.686Z,11.20
2023-08-12T20:01:01.663Z,10.30
2023-08-12T20:04:07.540Z,9.55
2023-08-12T20:07:14.416Z,10.65
2023-08-12T20:10:20.786Z,12.80
2023-08-12T20:13:30.348Z,11.82
2023-08-12T20:16:37.055Z,11.00
2023-08-12T20:19:44.539Z,9.30
2023-08-12T20:23:03.903Z,8.73
2023-08-12T20:26:11.171Z,9.15
2023-08-12T20:29:19.175Z,7.78
2023-08-12T20:32:29.761Z,8.02
2023-08-12T20:35:35.510Z,7.88
2023-08-12T20:38:43.057Z,8.48
2023-08-12T20:41:48.530Z,8.10
2023-08-12T20:44:56.225Z,10.85
2023-08-12T20:48:01.888Z,8.02
2023-08-12T20:51:08.007Z,6.93
2023-08-12T20:54:13.567Z,7.07
2023-08-12T20:57:18.701Z,7.90
2023-08-12T21:00:32.883Z,7.80
2023-08-12T21:03:39.126Z,9.40
2023-08-12T21:06:44.642Z,9.20
2023-08-12T21:09:50.282Z,7.13
2023-08-12T21:12:55.997Z,7.65
2023-08-12T21:16:04.034Z,8.98
2023-08-12T21:19:09.733Z,7.50
2023-08-12T21:22:15.285Z,8.25
2023-08-12T21:25:21.158Z,8.73
2023-08-12T21:28:26.323Z,6.93
2023-08-12T21:31:34.752Z,10.20
2023-08-12T21:34:39.908Z,8.10
2023-08-12T21:37:45.504Z,8.10
2023-08-12T21:40:50.721Z,9.10
2023-08-12T21:43:56.345Z,8.25
2023-08-12T21:47:04.100Z,9.07
2023-08-12T21:50:10.443Z,9.10
2023-08-12T21:53:15.960Z,8.38
2023-08-12T21:56:24.152Z,9.25
2023-08-12T21:59:29.812Z,8.55
2023-08-12T22:02:38.532Z,8.45
2023-08-12T22:05:45.665Z,10.43
2023-08-12T22:08:52.351Z,9.60
2023-08-12T22:11:57.585Z,9.93
2023-08-12T22:15:03.094Z,10.13
2023-08-12T22:18:11.288Z,11.45
2023-08-12T22:21:17.352Z,9.93
2023-08-12T22:24:26.661Z,8.55
2023-08-12T22:27:32.216Z,9.70
2023-08-12T22:30:39.004Z,8.18
2023-08-12T22:33:48.725Z,9.20
2023-08-12T22:36:53.941Z,8.82
2023-08-12T22:40:04.641Z,9.45
2023-08-12T22:43:14.452Z,12.13
2023-08-12T22:46:20.127Z,11.73
2023-08-12T22:49:29.055Z,14.07
2023-08-12T22:52:34.682Z,12.98
2023-08-12T22:55:39.790Z,11.60
2023-08-12T22:58:47.196Z,14.77
2023-08-12T23:01:53.477Z,14.18
2023-08-12T23:05:02.416Z,13.82
2023-08-12T23:08:07.975Z,10.45
2023-08-12T23:11:14.134Z,14.43
2023-08-12T23:14:19.427Z,12.45
2023-08-12T23:17:25.194Z,14.23
2023-08-12T23:20:35.777Z,13.15
2023-08-12T23:23:41.418Z,14.18
2023-08-12T23:26:46.729Z,15.95
2023-08-12T23:29:53.295Z,13.63
2023-08-12T23:33:00.661Z,13.82
2023-08-12T23:36:09.999Z,13.45
2023-08-12T23:39:17.880Z,14.07
2023-08-12T23:42:23.584Z,12.82
2023-08-12T23:45:30.593Z,16.20
2023-08-12T23:48:36.269Z,14.93
2023-08-12T23:51:47.784Z,14.38
2023-08-12T23:54:53.380Z,14.65
2023-08-12T23:57:58.455Z,15.02
